sensor_id;sensor_type;location;lat;lon;timestamp;P1;durP1;ratioP1;P2;durP2;ratioP2
10550;SDS011;5324;50.684;3.862;2024-01-15T00:02:01;14.30;;;9.27;;
10550;SDS011;5324;50.684;3.862;2024-01-15T00:04:28;15.27;;;9.23;;
10550;SDS011;5324;50.684;3.862;2024-01-15T00:06:54;18.03;;;9.63;;
10550;SDS011;5324;50.684;3.862;2024-01-15T00:09:20;16.73;;;9.83;;
10550;SDS011;5324;50.684;3.862;2024-01-15T00:11:46;16.57;;;10.73;;
10550;SDS011;5324;50.684;3.862;2024-01-15T00:14:12;18.37;;;10.47;;
10550;SDS011;5324;50.684;3.862;2024-01-15T00:16:40;17.60;;;10.37;;
10550;SDS011;5324;50.684;3.862;2024-01-15T00:19:06;17.80;;;11.07;;
10550;SDS011;5324;50.684;3.862;2024-01-15T00:21:32;18.10;;;11.20;;
10550;SDS011;5324;50.684;3.862;2024-01-15T00:23:58;17.63;;;10.40;;
10550;SDS011;5324;50.684;3.862;2024-01-15T00:26:24;18.47;;;11.50;;
10550;SDS011;5324;50.684;3.862;2024-01-15T00:28:50;17.70;;;10.07;;
10550;SDS011;5324;50.684;3.862;2024-01-15T00:31:16;16.27;;;10.00;;
10550;SDS011;5324;50.684;3.862;2024-01-15T00:33:43;15.87;;;10.43;;
10550;SDS011;5324;50.684;3.862;2024-01-15T00:36:09;19.27;;;11.93;;
10550;SDS011;5324;50.684;3.862;2024-01-15T00:38:35;18.40;;;10.90;;
10550;SDS011;5324;50.684;3.862;2024-01-15T00:41:01;18.33;;;10.30;;
10550;SDS011;5324;50.684;3.862;2024-01-15T00:43:28;16.37;;;10.77;;
10550;SDS011;5324;50.684;3.862;2024-01-15T00:45:54;17.70;;;10.57;;
10550;SDS011;5324;50.684;3.862;2024-01-15T00:48:20;18.03;;;9.27;;
10550;SDS011;5324;50.684;3.862;2024-01-15T00:50:46;16.60;;;9.93;;
10550;SDS011;5324;50.684;3.862;2024-01-15T00:53:12;14.37;;;9.37;;
10550;SDS011;5324;50.684;3.862;2024-01-15T00:55:38;15.37;;;10.07;;
10550;SDS011;5324;50.684;3.862;2024-01-15T00:58:04;15.90;;;9.80;;
10550;SDS011;5324;50.684;3.862;2024-01-15T01:00:30;17.43;;;10.13;;
10550;SDS011;5324;50.684;3.862;2024-01-15T01:02:56;13.33;;;9.03;;
10550;SDS011;5324;50.684;3.862;2024-01-15T01:05:22;12.30;;;8.77;;
10550;SDS011;5324;50.684;3.862;2024-01-15T01:07:48;12.60;;;8.47;;
10550;SDS011;5324;50.684;3.862;2024-01-15T01:10:14;12.23;;;8.13;;
10550;SDS011;5324;50.684;3.862;2024-01-15T01:12:40;12.33;;;8.23;;
10550;SDS011;5324;50.684;3.862;2024-01-15T01:15:06;14.27;;;8.60;;
10550;SDS011;5324;50.684;3.862;2024-01-15T01:17:33;14.63;;;8.80;;
10550;SDS011;5324;50.684;3.862;2024-01-15T01:19:59;11.63;;;7.77;;
10550;SDS011;5324;50.684;3.862;2024-01-15T01:22:25;10.87;;;7.77;;
10550;SDS011;5324;50.684;3.862;2024-01-15T01:24:51;11.93;;;7.37;;
10550;SDS011;5324;50.684;3.862;2024-01-15T01:27:17;8.90;;;6.70;;
10550;SDS011;5324;50.684;3.862;2024-01-15T01:29:44;12.33;;;7.33;;
10550;SDS011;5324;50.684;3.862;2024-01-15T01:32:10;9.80;;;6.73;;
10550;SDS011;5324;50.684;3.862;2024-01-15T01:34:39;12.70;;;6.80;;
10550;SDS011;5324;50.684;3.862;2024-01-15T01:37:09;12.27;;;6.70;;
10550;SDS011;5324;50.684;3.862;2024-01-15T01:39:37;12.97;;;6.43;;
10550;SDS011;5324;50.684;3.862;2024-01-15T01:42:04;11.43;;;6.50;;
10550;SDS011;5324;50.684;3.862;2024-01-15T01:44:30;9.90;;;6.33;;
10550;SDS011;5324;50.684;3.862;2024-01-15T01:46:57;9.70;;;5.70;;
10550;SDS011;5324;50.684;3.862;2024-01-15T01:49:24;15.73;;;7.57;;
10550;SDS011;5324;50.684;3.862;2024-01-15T01:51:50;12.43;;;8.50;;
10550;SDS011;5324;50.684;3.862;2024-01-15T01:54:17;10.60;;;7.33;;
10550;SDS011;5324;50.684;3.862;2024-01-15T01:56:44;12.60;;;8.20;;
10550;SDS011;5324;50.684;3.862;2024-01-15T01:59:10;12.40;;;8.53;;
10550;SDS011;5324;50.684;3.862;2024-01-15T02:01:36;14.33;;;8.60;;
10550;SDS011;5324;50.684;3.862;2024-01-15T02:04:03;12.80;;;8.63;;
10550;SDS011;5324;50.684;3.862;2024-01-15T02:06:29;12.13;;;8.40;;
10550;SDS011;5324;50.684;3.862;2024-01-15T02:08:55;14.57;;;9.30;;
10550;SDS011;5324;50.684;3.862;2024-01-15T02:11:21;17.13;;;8.63;;
10550;SDS011;5324;50.684;3.862;2024-01-15T02:13:47;16.30;;;10.30;;
10550;SDS011;5324;50.684;3.862;2024-01-15T02:16:14;14.97;;;9.53;;
10550;SDS011;5324;50.684;3.862;2024-01-15T02:18:40;15.07;;;10.03;;
10550;SDS011;5324;50.684;3.862;2024-01-15T02:21:07;19.23;;;10.60;;
10550;SDS011;5324;50.684;3.862;2024-01-15T02:23:33;14.77;;;9.90;;
10550;SDS011;5324;50.684;3.862;2024-01-15T02:25:59;14.77;;;9.90;;
10550;SDS011;5324;50.684;3.862;2024-01-15T02:28:25;18.03;;;10.73;;
10550;SDS011;5324;50.684;3.862;2024-01-15T02:30:51;15.53;;;10.13;;
10550;SDS011;5324;50.684;3.862;2024-01-15T02:33:17;15.80;;;9.97;;
10550;SDS011;5324;50.684;3.862;2024-01-15T02:35:43;16.90;;;10.60;;
10550;SDS011;5324;50.684;3.862;2024-01-15T02:38:11;18.77;;;10.93;;
10550;SDS011;5324;50.684;3.862;2024-01-15T02:40:38;18.60;;;11.57;;
10550;SDS011;5324;50.684;3.862;2024-01-15T02:43:04;16.60;;;10.97;;
10550;SDS011;5324;50.684;3.862;2024-01-15T02:45:30;17.70;;;11.07;;
10550;SDS011;5324;50.684;3.862;2024-01-15T02:47:56;18.83;;;11.27;;
10550;SDS011;5324;50.684;3.862;2024-01-15T02:50:22;19.07;;;11.03;;
10550;SDS011;5324;50.684;3.862;2024-01-15T02:52:48;16.60;;;11.40;;
10550;SDS011;5324;50.684;3.862;2024-01-15T02:55:14;16.63;;;11.07;;
10550;SDS011;5324;50.684;3.862;2024-01-15T02:57:40;17.10;;;11.83;;
10550;SDS011;5324;50.684;3.862;2024-01-15T03:00:06;17.97;;;11.97;;
10550;SDS011;5324;50.684;3.862;2024-01-15T03:02:35;17.27;;;11.47;;
10550;SDS011;5324;50.684;3.862;2024-01-15T03:05:02;19.40;;;11.37;;
10550;SDS011;5324;50.684;3.862;2024-01-15T03:07:28;17.97;;;11.23;;
10550;SDS011;5324;50.684;3.862;2024-01-15T03:09:54;20.63;;;11.90;;
10550;SDS011;5324;50.684;3.862;2024-01-15T03:12:20;20.27;;;11.23;;
10550;SDS011;5324;50.684;3.862;2024-01-15T03:14:46;18.33;;;11.00;;
10550;SDS011;5324;50.684;3.862;2024-01-15T03:17:12;18.17;;;11.07;;
10550;SDS011;5324;50.684;3.862;2024-01-15T03:19:38;20.23;;;11.73;;
10550;SDS011;5324;50.684;3.862;2024-01-15T03:22:04;19.90;;;11.93;;
10550;SDS011;5324;50.684;3.862;2024-01-15T03:24:33;16.27;;;10.83;;
10550;SDS011;5324;50.684;3.862;2024-01-15T03:26:59;16.73;;;10.60;;
10550;SDS011;5324;50.684;3.862;2024-01-15T03:29:25;19.13;;;11.00;;
10550;SDS011;5324;50.684;3.862;2024-01-15T03:31:52;15.07;;;10.10;;
10550;SDS011;5324;50.684;3.862;2024-01-15T03:34:18;16.97;;;11.17;;
10550;SDS011;5324;50.684;3.862;2024-01-15T03:36:44;15.60;;;10.33;;
10550;SDS011;5324;50.684;3.862;2024-01-15T03:39:10;15.70;;;9.93;;
10550;SDS011;5324;50.684;3.862;2024-01-15T03:41:36;18.10;;;10.53;;
10550;SDS011;5324;50.684;3.862;2024-01-15T03:44:03;17.90;;;10.63;;
10550;SDS011;5324;50.684;3.862;2024-01-15T03:46:29;15.77;;;9.93;;
10550;SDS011;5324;50.684;3.862;2024-01-15T03:48:55;15.80;;;10.90;;
10550;SDS011;5324;50.684;3.862;2024-01-15T03:51:21;16.10;;;10.53;;
10550;SDS011;5324;50.684;3.862;2024-01-15T03:53:47;14.43;;;9.60;;
10550;SDS011;5324;50.684;3.862;2024-01-15T03:56:13;14.50;;;9.80;;
10550;SDS011;5324;50.684;3.862;2024-01-15T03:58:39;14.00;;;9.43;;
10550;SDS011;5324;50.684;3.862;2024-01-15T04:01:11;12.43;;;8.57;;
10550;SDS011;5324;50.684;3.862;2024-01-15T04:03:37;16.63;;;9.40;;
10550;SDS011;5324;50.684;3.862;2024-01-15T04:06:04;13.83;;;9.47;;
10550;SDS011;5324;50.684;3.862;2024-01-15T04:08:30;17.17;;;9.10;;
10550;SDS011;5324;50.684;3.862;2024-01-15T04:10:56;13.53;;;9.30;;
10550;SDS011;5324;50.684;3.862;2024-01-15T04:13:22;14.37;;;8.33;;
10550;SDS011;5324;50.684;3.862;2024-01-15T04:15:48;13.83;;;8.63;;
10550;SDS011;5324;50.684;3.862;2024-01-15T04:18:15;13.87;;;8.87;;
10550;SDS011;5324;50.684;3.862;2024-01-15T04:20:42;11.47;;;8.23;;
10550;SDS011;5324;50.684;3.862;2024-01-15T04:23:08;14.00;;;8.63;;
10550;SDS011;5324;50.684;3.862;2024-01-15T04:25:34;12.07;;;8.50;;
10550;SDS011;5324;50.684;3.862;2024-01-15T04:28:00;14.10;;;8.33;;
10550;SDS011;5324;50.684;3.862;2024-01-15T04:30:26;12.17;;;7.83;;
10550;SDS011;5324;50.684;3.862;2024-01-15T04:32:52;12.37;;;8.20;;
10550;SDS011;5324;50.684;3.862;2024-01-15T04:35:18;13.23;;;8.07;;
10550;SDS011;5324;50.684;3.862;2024-01-15T04:37:44;14.17;;;8.33;;
10550;SDS011;5324;50.684;3.862;2024-01-15T04:40:10;10.47;;;7.60;;
10550;SDS011;5324;50.684;3.862;2024-01-15T04:42:37;13.27;;;8.07;;
10550;SDS011;5324;50.684;3.862;2024-01-15T04:45:03;10.50;;;7.73;;
10550;SDS011;5324;50.684;3.862;2024-01-15T04:47:29;10.43;;;7.70;;
10550;SDS011;5324;50.684;3.862;2024-01-15T04:49:55;11.30;;;7.67;;
10550;SDS011;5324;50.684;3.862;2024-01-15T04:52:21;12.50;;;7.63;;
10550;SDS011;5324;50.684;3.862;2024-01-15T04:54:48;13.63;;;8.53;;
10550;SDS011;5324;50.684;3.862;2024-01-15T04:57:14;10.93;;;7.90;;
10550;SDS011;5324;50.684;3.862;2024-01-15T04:59:41;11.20;;;7.80;;
10550;SDS011;5324;50.684;3.862;2024-01-15T05:02:07;10.53;;;7.70;;
10550;SDS011;5324;50.684;3.862;2024-01-15T05:04:33;10.73;;;7.90;;
10550;SDS011;5324;50.684;3.862;2024-01-15T05:06:59;10.43;;;7.57;;
10550;SDS011;5324;50.684;3.862;2024-01-15T05:09:25;12.10;;;7.37;;
10550;SDS011;5324;50.684;3.862;2024-01-15T05:11:51;9.83;;;7.80;;
10550;SDS011;5324;50.684;3.862;2024-01-15T05:14:17;10.80;;;7.43;;
10550;SDS011;5324;50.684;3.862;2024-01-15T05:16:46;8.90;;;7.27;;
10550;SDS011;5324;50.684;3.862;2024-01-15T05:19:13;10.63;;;7.63;;
10550;SDS011;5324;50.684;3.862;2024-01-15T05:21:39;10.63;;;7.17;;
10550;SDS011;5324;50.684;3.862;2024-01-15T05:24:05;9.83;;;6.27;;
10550;SDS011;5324;50.684;3.862;2024-01-15T05:26:31;10.57;;;6.97;;
10550;SDS011;5324;50.684;3.862;2024-01-15T05:28:57;10.70;;;6.50;;
10550;SDS011;5324;50.684;3.862;2024-01-15T05:31:23;10.63;;;6.90;;
10550;SDS011;5324;50.684;3.862;2024-01-15T05:33:49;7.50;;;6.13;;
10550;SDS011;5324;50.684;3.862;2024-01-15T05:36:15;7.73;;;5.80;;
10550;SDS011;5324;50.684;3.862;2024-01-15T05:38:41;7.87;;;5.70;;
10550;SDS011;5324;50.684;3.862;2024-01-15T05:41:07;8.97;;;5.93;;
10550;SDS011;5324;50.684;3.862;2024-01-15T05:43:33;8.47;;;5.60;;
10550;SDS011;5324;50.684;3.862;2024-01-15T05:45:59;9.83;;;5.90;;
10550;SDS011;5324;50.684;3.862;2024-01-15T05:48:25;7.90;;;5.40;;
10550;SDS011;5324;50.684;3.862;2024-01-15T05:50:51;6.13;;;5.13;;
10550;SDS011;5324;50.684;3.862;2024-01-15T05:53:17;6.40;;;4.73;;
10550;SDS011;5324;50.684;3.862;2024-01-15T05:55:43;6.57;;;4.30;;
10550;SDS011;5324;50.684;3.862;2024-01-15T05:58:09;4.43;;;3.70;;
10550;SDS011;5324;50.684;3.862;2024-01-15T06:00:35;5.23;;;3.50;;
10550;SDS011;5324;50.684;3.862;2024-01-15T06:03:03;4.47;;;3.30;;
10550;SDS011;5324;50.684;3.862;2024-01-15T06:05:30;4.97;;;3.07;;
10550;SDS011;5324;50.684;3.862;2024-01-15T06:07:56;5.40;;;2.70;;
10550;SDS011;5324;50.684;3.862;2024-01-15T06:10:22;5.23;;;2.80;;
10550;SDS011;5324;50.684;3.862;2024-01-15T06:12:48;5.63;;;2.50;;
10550;SDS011;5324;50.684;3.862;2024-01-15T06:15:14;7.23;;;2.50;;
10550;SDS011;5324;50.684;3.862;2024-01-15T06:17:40;5.20;;;2.53;;
10550;SDS011;5324;50.684;3.862;2024-01-15T06:20:06;6.27;;;2.47;;
10550;SDS011;5324;50.684;3.862;2024-01-15T06:22:34;3.77;;;2.00;;
10550;SDS011;5324;50.684;3.862;2024-01-15T06:25:01;2.23;;;1.83;;
10550;SDS011;5324;50.684;3.862;2024-01-15T06:27:28;4.40;;;2.57;;
10550;SDS011;5324;50.684;3.862;2024-01-15T06:29:54;2.50;;;2.00;;
10550;SDS011;5324;50.684;3.862;2024-01-15T06:32:21;3.43;;;2.07;;
10550;SDS011;5324;50.684;3.862;2024-01-15T06:34:47;7.67;;;2.50;;
10550;SDS011;5324;50.684;3.862;2024-01-15T06:37:13;2.07;;;1.87;;
10550;SDS011;5324;50.684;3.862;2024-01-15T06:39:39;3.20;;;2.07;;
10550;SDS011;5324;50.684;3.862;2024-01-15T06:42:06;3.77;;;2.00;;
10550;SDS011;5324;50.684;3.862;2024-01-15T06:44:32;4.10;;;2.00;;
10550;SDS011;5324;50.684;3.862;2024-01-15T06:46:58;3.27;;;2.00;;
10550;SDS011;5324;50.684;3.862;2024-01-15T06:49:27;3.30;;;1.60;;
10550;SDS011;5324;50.684;3.862;2024-01-15T06:51:54;2.43;;;1.80;;
10550;SDS011;5324;50.684;3.862;2024-01-15T06:54:20;4.13;;;2.00;;
10550;SDS011;5324;50.684;3.862;2024-01-15T06:56:47;4.00;;;2.10;;
10550;SDS011;5324;50.684;3.862;2024-01-15T06:59:13;3.20;;;2.20;;
10550;SDS011;5324;50.684;3.862;2024-01-15T07:01:39;3.17;;;2.20;;
10550;SDS011;5324;50.684;3.862;2024-01-15T07:04:05;2.77;;;1.83;;
10550;SDS011;5324;50.684;3.862;2024-01-15T07:06:31;3.70;;;1.87;;
10550;SDS011;5324;50.684;3.862;2024-01-15T07:08:57;3.57;;;2.17;;
10550;SDS011;5324;50.684;3.862;2024-01-15T07:11:23;2.53;;;1.60;;
10550;SDS011;5324;50.684;3.862;2024-01-15T07:13:49;6.43;;;2.33;;
10550;SDS011;5324;50.684;3.862;2024-01-15T07:16:15;3.20;;;1.87;;
10550;SDS011;5324;50.684;3.862;2024-01-15T07:18:41;3.17;;;2.17;;
10550;SDS011;5324;50.684;3.862;2024-01-15T07:21:07;2.90;;;2.17;;
10550;SDS011;5324;50.684;3.862;2024-01-15T07:23:34;3.83;;;2.40;;
10550;SDS011;5324;50.684;3.862;2024-01-15T07:26:00;5.83;;;2.30;;
10550;SDS011;5324;50.684;3.862;2024-01-15T07:28:28;5.37;;;2.30;;
10550;SDS011;5324;50.684;3.862;2024-01-15T07:30:55;2.50;;;2.10;;
10550;SDS011;5324;50.684;3.862;2024-01-15T07:33:21;5.40;;;2.37;;
10550;SDS011;5324;50.684;3.862;2024-01-15T07:35:47;4.03;;;1.90;;
10550;SDS011;5324;50.684;3.862;2024-01-15T07:38:13;7.13;;;2.70;;
10550;SDS011;5324;50.684;3.862;2024-01-15T07:40:39;9.33;;;2.60;;
10550;SDS011;5324;50.684;3.862;2024-01-15T07:43:05;6.03;;;2.40;;
10550;SDS011;5324;50.684;3.862;2024-01-15T07:45:31;2.63;;;2.17;;
10550;SDS011;5324;50.684;3.862;2024-01-15T07:47:57;5.20;;;1.87;;
10550;SDS011;5324;50.684;3.862;2024-01-15T07:50:23;3.63;;;2.17;;
10550;SDS011;5324;50.684;3.862;2024-01-15T07:52:49;3.10;;;2.17;;
10550;SDS011;5324;50.684;3.862;2024-01-15T07:55:15;3.43;;;2.00;;
10550;SDS011;5324;50.684;3.862;2024-01-15T07:57:41;3.80;;;2.13;;
10550;SDS011;5324;50.684;3.862;2024-01-15T08:00:08;4.87;;;2.17;;
10550;SDS011;5324;50.684;3.862;2024-01-15T08:02:34;7.13;;;2.10;;
10550;SDS011;5324;50.684;3.862;2024-01-15T08:05:00;5.60;;;2.63;;
10550;SDS011;5324;50.684;3.862;2024-01-15T08:07:26;6.50;;;2.00;;
10550;SDS011;5324;50.684;3.862;2024-01-15T08:09:52;3.77;;;2.20;;
10550;SDS011;5324;50.684;3.862;2024-01-15T08:12:18;5.47;;;2.10;;
10550;SDS011;5324;50.684;3.862;2024-01-15T08:14:44;3.33;;;2.17;;
10550;SDS011;5324;50.684;3.862;2024-01-15T08:17:11;4.30;;;2.03;;
10550;SDS011;5324;50.684;3.862;2024-01-15T08:19:37;2.77;;;2.27;;
10550;SDS011;5324;50.684;3.862;2024-01-15T08:22:06;5.87;;;2.20;;
10550;SDS011;5324;50.684;3.862;2024-01-15T08:24:32;6.10;;;2.67;;
10550;SDS011;5324;50.684;3.862;2024-01-15T08:26:58;6.40;;;2.40;;
10550;SDS011;5324;50.684;3.862;2024-01-15T08:29:24;4.60;;;2.57;;
10550;SDS011;5324;50.684;3.862;2024-01-15T08:31:50;5.67;;;3.13;;
10550;SDS011;5324;50.684;3.862;2024-01-15T08:34:16;4.30;;;2.27;;
10550;SDS011;5324;50.684;3.862;2024-01-15T08:36:42;4.80;;;2.10;;
10550;SDS011;5324;50.684;3.862;2024-01-15T08:39:08;3.87;;;2.13;;
10550;SDS011;5324;50.684;3.862;2024-01-15T08:41:34;2.43;;;2.23;;
10550;SDS011;5324;50.684;3.862;2024-01-15T08:44:00;5.43;;;2.13;;
10550;SDS011;5324;50.684;3.862;2024-01-15T08:46:27;3.03;;;2.17;;
10550;SDS011;5324;50.684;3.862;2024-01-15T08:48:54;2.93;;;2.00;;
10550;SDS011;5324;50.684;3.862;2024-01-15T08:51:20;5.93;;;2.30;;
10550;SDS011;5324;50.684;3.862;2024-01-15T08:53:46;3.23;;;2.17;;
10550;SDS011;5324;50.684;3.862;2024-01-15T08:56:12;3.63;;;2.30;;
10550;SDS011;5324;50.684;3.862;2024-01-15T08:58:38;5.70;;;2.80;;
10550;SDS011;5324;50.684;3.862;2024-01-15T09:01:04;3.93;;;2.20;;
10550;SDS011;5324;50.684;3.862;2024-01-15T09:03:30;3.93;;;2.90;;
10550;SDS011;5324;50.684;3.862;2024-01-15T09:05:57;4.90;;;2.73;;
10550;SDS011;5324;50.684;3.862;2024-01-15T09:08:23;5.30;;;2.33;;
10550;SDS011;5324;50.684;3.862;2024-01-15T09:10:49;5.43;;;2.20;;
10550;SDS011;5324;50.684;3.862;2024-01-15T09:13:16;8.93;;;2.33;;
10550;SDS011;5324;50.684;3.862;2024-01-15T09:15:42;3.67;;;2.00;;
10550;SDS011;5324;50.684;3.862;2024-01-15T09:18:08;4.20;;;2.47;;
10550;SDS011;5324;50.684;3.862;2024-01-15T09:20:35;3.93;;;1.90;;
10550;SDS011;5324;50.684;3.862;2024-01-15T09:23:01;3.57;;;2.30;;
10550;SDS011;5324;50.684;3.862;2024-01-15T09:25:27;2.43;;;1.80;;
10550;SDS011;5324;50.684;3.862;2024-01-15T09:27:54;3.73;;;1.83;;
10550;SDS011;5324;50.684;3.862;2024-01-15T09:30:20;4.07;;;2.23;;
10550;SDS011;5324;50.684;3.862;2024-01-15T09:32:46;3.63;;;1.90;;
10550;SDS011;5324;50.684;3.862;2024-01-15T09:35:12;4.83;;;2.10;;
10550;SDS011;5324;50.684;3.862;2024-01-15T09:37:39;4.60;;;2.10;;
10550;SDS011;5324;50.684;3.862;2024-01-15T09:40:06;4.57;;;2.57;;
10550;SDS011;5324;50.684;3.862;2024-01-15T09:42:32;4.33;;;2.37;;
10550;SDS011;5324;50.684;3.862;2024-01-15T09:44:58;3.87;;;1.97;;
10550;SDS011;5324;50.684;3.862;2024-01-15T09:47:25;4.47;;;3.07;;
10550;SDS011;5324;50.684;3.862;2024-01-15T09:49:51;5.07;;;2.40;;
10550;SDS011;5324;50.684;3.862;2024-01-15T09:52:17;5.40;;;2.27;;
10550;SDS011;5324;50.684;3.862;2024-01-15T09:54:45;5.33;;;2.30;;
10550;SDS011;5324;50.684;3.862;2024-01-15T09:57:12;3.20;;;2.27;;
10550;SDS011;5324;50.684;3.862;2024-01-15T09:59:38;4.23;;;2.70;;
10550;SDS011;5324;50.684;3.862;2024-01-15T10:02:06;2.80;;;2.27;;
10550;SDS011;5324;50.684;3.862;2024-01-15T10:04:33;3.93;;;2.70;;
10550;SDS011;5324;50.684;3.862;2024-01-15T10:06:59;5.40;;;2.23;;
10550;SDS011;5324;50.684;3.862;2024-01-15T10:09:26;6.33;;;2.20;;
10550;SDS011;5324;50.684;3.862;2024-01-15T10:11:52;3.83;;;2.00;;
10550;SDS011;5324;50.684;3.862;2024-01-15T10:14:19;3.93;;;2.23;;
10550;SDS011;5324;50.684;3.862;2024-01-15T10:16:45;2.90;;;2.07;;
10550;SDS011;5324;50.684;3.862;2024-01-15T10:19:11;7.87;;;2.03;;
10550;SDS011;5324;50.684;3.862;2024-01-15T10:21:37;4.10;;;2.30;;
10550;SDS011;5324;50.684;3.862;2024-01-15T10:24:04;4.80;;;2.00;;
10550;SDS011;5324;50.684;3.862;2024-01-15T10:26:30;3.97;;;2.10;;
10550;SDS011;5324;50.684;3.862;2024-01-15T10:28:58;4.07;;;2.07;;
10550;SDS011;5324;50.684;3.862;2024-01-15T10:31:25;5.37;;;2.10;;
10550;SDS011;5324;50.684;3.862;2024-01-15T10:33:51;3.37;;;2.40;;
10550;SDS011;5324;50.684;3.862;2024-01-15T10:36:17;4.03;;;2.00;;
10550;SDS011;5324;50.684;3.862;2024-01-15T10:38:44;4.53;;;2.17;;
10550;SDS011;5324;50.684;3.862;2024-01-15T10:41:10;4.10;;;2.53;;
10550;SDS011;5324;50.684;3.862;2024-01-15T10:43:37;4.07;;;2.30;;
10550;SDS011;5324;50.684;3.862;2024-01-15T10:46:03;4.80;;;2.00;;
10550;SDS011;5324;50.684;3.862;2024-01-15T10:48:29;4.43;;;1.90;;
10550;SDS011;5324;50.684;3.862;2024-01-15T10:50:59;2.73;;;1.90;;
10550;SDS011;5324;50.684;3.862;2024-01-15T10:53:25;6.63;;;2.20;;
10550;SDS011;5324;50.684;3.862;2024-01-15T10:55:52;3.30;;;1.90;;
10550;SDS011;5324;50.684;3.862;2024-01-15T10:58:19;4.83;;;2.00;;
10550;SDS011;5324;50.684;3.862;2024-01-15T11:00:46;5.07;;;1.80;;
10550;SDS011;5324;50.684;3.862;2024-01-15T11:03:12;5.70;;;1.90;;
10550;SDS011;5324;50.684;3.862;2024-01-15T11:05:40;3.07;;;1.60;;
10550;SDS011;5324;50.684;3.862;2024-01-15T11:08:07;4.60;;;1.87;;
10550;SDS011;5324;50.684;3.862;2024-01-15T11:13:10;3.27;;;2.03;;
10550;SDS011;5324;50.684;3.862;2024-01-15T11:15:54;4.07;;;1.87;;
10550;SDS011;5324;50.684;3.862;2024-01-15T11:18:21;4.73;;;2.13;;
10550;SDS011;5324;50.684;3.862;2024-01-15T11:23:42;6.93;;;2.13;;
10550;SDS011;5324;50.684;3.862;2024-01-15T11:28:53;3.27;;;1.77;;
10550;SDS011;5324;50.684;3.862;2024-01-15T11:31:20;1.90;;;1.50;;
10550;SDS011;5324;50.684;3.862;2024-01-15T11:33:49;6.37;;;1.87;;
10550;SDS011;5324;50.684;3.862;2024-01-15T11:36:16;1.50;;;1.40;;
10550;SDS011;5324;50.684;3.862;2024-01-15T11:38:42;3.57;;;1.50;;
10550;SDS011;5324;50.684;3.862;2024-01-15T11:41:14;3.17;;;1.47;;
10550;SDS011;5324;50.684;3.862;2024-01-15T11:43:43;2.60;;;1.20;;
10550;SDS011;5324;50.684;3.862;2024-01-15T11:46:12;5.97;;;1.60;;
10550;SDS011;5324;50.684;3.862;2024-01-15T11:48:44;4.03;;;1.60;;
10550;SDS011;5324;50.684;3.862;2024-01-15T11:51:11;3.07;;;1.60;;
10550;SDS011;5324;50.684;3.862;2024-01-15T11:53:43;5.40;;;1.47;;
10550;SDS011;5324;50.684;3.862;2024-01-15T11:56:14;4.47;;;1.33;;
10550;SDS011;5324;50.684;3.862;2024-01-15T11:58:41;3.87;;;1.50;;
10550;SDS011;5324;50.684;3.862;2024-01-15T12:01:08;2.60;;;1.53;;
10550;SDS011;5324;50.684;3.862;2024-01-15T12:03:34;2.63;;;1.60;;
10550;SDS011;5324;50.684;3.862;2024-01-15T12:06:00;2.50;;;1.63;;
10550;SDS011;5324;50.684;3.862;2024-01-15T12:08:27;4.50;;;1.80;;
10550;SDS011;5324;50.684;3.862;2024-01-15T12:10:53;6.03;;;1.77;;
10550;SDS011;5324;50.684;3.862;2024-01-15T12:13:19;4.80;;;1.57;;
10550;SDS011;5324;50.684;3.862;2024-01-15T12:15:46;2.67;;;1.33;;
10550;SDS011;5324;50.684;3.862;2024-01-15T12:18:13;2.93;;;1.50;;
10550;SDS011;5324;50.684;3.862;2024-01-15T12:20:40;4.90;;;1.60;;
10550;SDS011;5324;50.684;3.862;2024-01-15T12:23:07;6.80;;;1.90;;
10550;SDS011;5324;50.684;3.862;2024-01-15T12:25:35;5.63;;;1.80;;
10550;SDS011;5324;50.684;3.862;2024-01-15T12:28:01;4.50;;;1.80;;
10550;SDS011;5324;50.684;3.862;2024-01-15T12:30:27;5.27;;;2.00;;
10550;SDS011;5324;50.684;3.862;2024-01-15T12:32:54;4.37;;;1.63;;
10550;SDS011;5324;50.684;3.862;2024-01-15T12:35:20;3.63;;;1.57;;
10550;SDS011;5324;50.684;3.862;2024-01-15T12:37:47;5.00;;;1.70;;
10550;SDS011;5324;50.684;3.862;2024-01-15T12:40:13;5.67;;;1.80;;
10550;SDS011;5324;50.684;3.862;2024-01-15T12:42:44;3.23;;;1.73;;
10550;SDS011;5324;50.684;3.862;2024-01-15T12:45:11;3.63;;;1.83;;
10550;SDS011;5324;50.684;3.862;2024-01-15T12:47:38;4.93;;;1.60;;
10550;SDS011;5324;50.684;3.862;2024-01-15T12:50:08;3.43;;;1.47;;
10550;SDS011;5324;50.684;3.862;2024-01-15T12:52:34;5.43;;;1.97;;
10550;SDS011;5324;50.684;3.862;2024-01-15T12:55:03;3.67;;;1.73;;
10550;SDS011;5324;50.684;3.862;2024-01-15T12:57:29;2.57;;;1.67;;
10550;SDS011;5324;50.684;3.862;2024-01-15T12:59:55;3.67;;;1.80;;
10550;SDS011;5324;50.684;3.862;2024-01-15T13:02:21;2.33;;;1.80;;
10550;SDS011;5324;50.684;3.862;2024-01-15T13:04:47;5.07;;;1.47;;
10550;SDS011;5324;50.684;3.862;2024-01-15T13:07:13;4.07;;;2.00;;
10550;SDS011;5324;50.684;3.862;2024-01-15T13:09:39;4.30;;;2.00;;
10550;SDS011;5324;50.684;3.862;2024-01-15T13:12:06;4.70;;;1.77;;
10550;SDS011;5324;50.684;3.862;2024-01-15T13:14:32;3.10;;;1.90;;
10550;SDS011;5324;50.684;3.862;2024-01-15T13:16:58;4.97;;;2.03;;
10550;SDS011;5324;50.684;3.862;2024-01-15T13:19:24;4.50;;;1.90;;
10550;SDS011;5324;50.684;3.862;2024-01-15T13:21:50;3.50;;;1.70;;
10550;SDS011;5324;50.684;3.862;2024-01-15T13:24:18;4.43;;;1.83;;
10550;SDS011;5324;50.684;3.862;2024-01-15T13:26:44;5.87;;;1.93;;
10550;SDS011;5324;50.684;3.862;2024-01-15T13:29:10;5.60;;;2.13;;
10550;SDS011;5324;50.684;3.862;2024-01-15T13:31:36;3.83;;;1.83;;
10550;SDS011;5324;50.684;3.862;2024-01-15T13:34:03;3.97;;;1.90;;
10550;SDS011;5324;50.684;3.862;2024-01-15T13:36:29;3.57;;;2.03;;
10550;SDS011;5324;50.684;3.862;2024-01-15T13:38:55;8.53;;;2.10;;
10550;SDS011;5324;50.684;3.862;2024-01-15T13:41:21;5.00;;;2.40;;
10550;SDS011;5324;50.684;3.862;2024-01-15T13:43:52;4.17;;;1.70;;
10550;SDS011;5324;50.684;3.862;2024-01-15T13:46:18;3.43;;;1.70;;
10550;SDS011;5324;50.684;3.862;2024-01-15T13:48:45;4.07;;;1.90;;
10550;SDS011;5324;50.684;3.862;2024-01-15T13:51:11;6.03;;;2.37;;
10550;SDS011;5324;50.684;3.862;2024-01-15T13:53:37;4.87;;;1.93;;
10550;SDS011;5324;50.684;3.862;2024-01-15T13:56:04;4.57;;;1.50;;
10550;SDS011;5324;50.684;3.862;2024-01-15T13:58:30;3.87;;;2.17;;
10550;SDS011;5324;50.684;3.862;2024-01-15T14:00:57;6.40;;;2.00;;
10550;SDS011;5324;50.684;3.862;2024-01-15T14:03:23;4.30;;;2.17;;
10550;SDS011;5324;50.684;3.862;2024-01-15T14:05:50;4.30;;;1.70;;
10550;SDS011;5324;50.684;3.862;2024-01-15T14:08:17;4.70;;;1.87;;
10550;SDS011;5324;50.684;3.862;2024-01-15T14:10:43;5.07;;;1.47;;
10550;SDS011;5324;50.684;3.862;2024-01-15T14:13:09;2.93;;;2.33;;
10550;SDS011;5324;50.684;3.862;2024-01-15T14:15:35;4.97;;;2.13;;
10550;SDS011;5324;50.684;3.862;2024-01-15T14:18:01;5.00;;;1.93;;
10550;SDS011;5324;50.684;3.862;2024-01-15T14:20:27;7.33;;;1.67;;
10550;SDS011;5324;50.684;3.862;2024-01-15T14:22:54;8.87;;;1.93;;
10550;SDS011;5324;50.684;3.862;2024-01-15T14:25:20;3.13;;;1.70;;
10550;SDS011;5324;50.684;3.862;2024-01-15T14:27:46;3.77;;;1.70;;
10550;SDS011;5324;50.684;3.862;2024-01-15T14:30:12;5.53;;;1.83;;
10550;SDS011;5324;50.684;3.862;2024-01-15T14:32:40;4.70;;;1.87;;
10550;SDS011;5324;50.684;3.862;2024-01-15T14:35:07;6.63;;;2.17;;
10550;SDS011;5324;50.684;3.862;2024-01-15T14:37:35;4.07;;;1.80;;
10550;SDS011;5324;50.684;3.862;2024-01-15T14:40:01;2.67;;;2.10;;
10550;SDS011;5324;50.684;3.862;2024-01-15T14:42:29;5.83;;;2.30;;
10550;SDS011;5324;50.684;3.862;2024-01-15T14:44:55;4.63;;;1.97;;
10550;SDS011;5324;50.684;3.862;2024-01-15T14:47:21;10.47;;;2.10;;
10550;SDS011;5324;50.684;3.862;2024-01-15T14:49:49;5.47;;;1.90;;
10550;SDS011;5324;50.684;3.862;2024-01-15T14:52:15;3.87;;;1.80;;
10550;SDS011;5324;50.684;3.862;2024-01-15T14:54:42;6.20;;;1.57;;
10550;SDS011;5324;50.684;3.862;2024-01-15T14:57:08;4.97;;;1.97;;
10550;SDS011;5324;50.684;3.862;2024-01-15T14:59:34;4.80;;;1.63;;